createdAt,value
2019-02-24T00:00:38.832Z,15.68
2019-02-24T00:03:29.568Z,12.45
2019-02-24T00:06:19.552Z,12.20
2019-02-24T00:09:09.345Z,10.93
2019-02-24T00:11:59.293Z,12.80
2019-02-24T00:14:48.996Z,12.58
2019-02-24T00:17:38.152Z,13.15
2019-02-24T00:20:28.663Z,14.78
2019-02-24T00:23:18.557Z,10.28
2019-02-24T00:26:08.302Z,16.73
2019-02-24T00:28:57.693Z,11.80
2019-02-24T00:31:47.565Z,13.68
2019-02-24T00:34:37.715Z,13.62
2019-02-24T00:37:27.661Z,11.93
2019-02-24T00:40:17.532Z,8.33
2019-02-24T00:43:07.474Z,11.00
2019-02-24T00:45:57.383Z,12.50
2019-02-24T00:48:46.730Z,10.72
2019-02-24T00:51:36.235Z,12.98
2019-02-24T00:54:25.715Z,9.45
2019-02-24T00:57:15.271Z,13.30
2019-02-24T01:00:05.551Z,9.53
2019-02-24T01:02:57.097Z,14.70
2019-02-24T01:05:46.313Z,12.23
2019-02-24T01:08:36.254Z,11.80
2019-02-24T01:11:25.831Z,13.30
2019-02-24T01:14:15.825Z,13.95
2019-02-24T01:17:08.744Z,9.65
2019-02-24T01:19:58.445Z,13.10
2019-02-24T01:22:48.026Z,13.85
2019-02-24T01:25:37.576Z,8.65
2019-02-24T01:28:27.167Z,11.35
2019-02-24T01:31:16.976Z,14.18
2019-02-24T01:34:06.835Z,9.68
2019-02-24T01:36:57.115Z,11.80
2019-02-24T01:39:47.187Z,13.00
2019-02-24T01:42:36.506Z,12.10
2019-02-24T01:45:26.145Z,11.03
2019-02-24T01:48:18.972Z,11.95
2019-02-24T01:51:08.713Z,9.53
2019-02-24T01:53:58.555Z,10.63
2019-02-24T01:56:48.322Z,9.58
2019-02-24T01:59:38.415Z,13.48
2019-02-24T02:02:28.466Z,11.85
2019-02-24T02:05:18.153Z,11.63
2019-02-24T02:08:08.068Z,17.05
2019-02-24T02:10:57.730Z,14.33
2019-02-24T02:13:47.342Z,9.25
2019-02-24T02:16:37.230Z,13.70
2019-02-24T02:19:26.886Z,11.38
2019-02-24T02:22:16.846Z,13.20
2019-02-24T02:25:06.643Z,10.88
2019-02-24T02:27:56.526Z,12.98
2019-02-24T02:30:46.116Z,15.88
2019-02-24T02:33:35.385Z,10.30
2019-02-24T02:36:25.466Z,8.70
2019-02-24T02:39:15.135Z,14.65
2019-02-24T02:42:04.795Z,11.68
2019-02-24T02:44:54.689Z,14.53
2019-02-24T02:47:43.984Z,11.65
2019-02-24T02:50:33.796Z,12.25
2019-02-24T02:53:23.697Z,12.05
2019-02-24T02:56:13.787Z,14.75
2019-02-24T02:59:03.752Z,15.08
2019-02-24T03:01:53.665Z,12.55
2019-02-24T03:04:43.545Z,20.48
2019-02-24T03:07:43.775Z,12.10
2019-02-24T03:10:33.465Z,13.05
2019-02-24T03:13:22.792Z,15.95
2019-02-24T03:16:12.590Z,13.80
2019-02-24T03:19:02.388Z,13.88
2019-02-24T03:21:52.571Z,14.47
2019-02-24T03:24:42.550Z,16.50
2019-02-24T03:27:32.147Z,13.50
2019-02-24T03:30:22.207Z,12.90
2019-02-24T03:33:11.715Z,14.45
2019-02-24T03:36:01.453Z,16.23
2019-02-24T03:38:51.574Z,12.95
2019-02-24T03:41:41.394Z,14.83
2019-02-24T03:44:31.202Z,17.90
2019-02-24T03:47:21.172Z,14.45
2019-02-24T03:50:10.662Z,13.70
2019-02-24T03:53:00.431Z,14.58
2019-02-24T03:55:50.145Z,16.23
2019-02-24T03:58:40.125Z,17.23
2019-02-24T04:01:29.502Z,14.50
2019-02-24T04:04:19.462Z,13.25
2019-02-24T04:07:09.551Z,13.43
2019-02-24T04:09:59.392Z,16.17
2019-02-24T04:12:49.212Z,15.45
2019-02-24T04:15:38.874Z,14.30
2019-02-24T04:18:28.762Z,13.50
2019-02-24T04:21:18.567Z,17.90
2019-02-24T04:24:08.565Z,15.40
2019-02-24T04:26:58.635Z,17.75
2019-02-24T04:29:48.536Z,18.23
2019-02-24T04:32:38.107Z,15.43
2019-02-24T04:35:28.162Z,17.80
2019-02-24T04:38:18.149Z,15.83
2019-02-24T04:41:07.822Z,14.80
2019-02-24T04:43:57.892Z,15.85
2019-02-24T04:46:47.392Z,15.23
2019-02-24T04:49:36.725Z,13.55
2019-02-24T04:52:26.352Z,12.73
2019-02-24T04:55:16.316Z,14.50
2019-02-24T04:58:05.812Z,17.32
2019-02-24T05:00:55.854Z,16.97
2019-02-24T05:03:45.863Z,16.25
2019-02-24T05:06:35.515Z,15.98
2019-02-24T05:09:25.195Z,17.15
2019-02-24T05:12:14.693Z,18.55
2019-02-24T05:15:04.259Z,16.62
2019-02-24T05:17:54.165Z,16.07
2019-02-24T05:20:43.836Z,16.42
2019-02-24T05:23:34.002Z,15.48
2019-02-24T05:26:23.154Z,17.07
2019-02-24T05:29:13.284Z,18.27
2019-02-24T05:32:03.385Z,19.00
2019-02-24T05:34:52.815Z,16.12
2019-02-24T05:37:42.492Z,18.25
2019-02-24T05:40:32.276Z,15.10
2019-02-24T05:43:21.914Z,18.30
2019-02-24T05:46:11.414Z,16.32
2019-02-24T05:49:01.326Z,16.57
2019-02-24T05:51:50.801Z,16.25
2019-02-24T05:54:40.472Z,16.02
2019-02-24T05:57:30.703Z,16.97
2019-02-24T06:00:20.135Z,16.30
2019-02-24T06:03:10.171Z,17.62
2019-02-24T06:06:00.208Z,15.23
2019-02-24T06:08:49.813Z,16.48
2019-02-24T06:11:39.732Z,16.65
2019-02-24T06:14:29.113Z,17.90
2019-02-24T06:17:18.975Z,19.27
2019-02-24T06:20:09.003Z,17.77
2019-02-24T06:22:58.382Z,19.85
2019-02-24T06:25:48.433Z,17.67
2019-02-24T06:28:38.003Z,16.50
2019-02-24T06:31:27.859Z,17.05
2019-02-24T06:34:17.572Z,17.05
2019-02-24T06:37:07.066Z,17.15
2019-02-24T06:39:56.816Z,23.57
2019-02-24T06:42:46.405Z,24.18
2019-02-24T06:45:36.087Z,15.48
2019-02-24T06:48:25.946Z,19.23
2019-02-24T06:51:16.992Z,18.40
2019-02-24T06:54:06.745Z,19.00
2019-02-24T06:56:56.213Z,16.17
2019-02-24T06:59:46.107Z,22.42
2019-02-24T07:02:35.604Z,21.20
2019-02-24T07:05:25.470Z,18.40
2019-02-24T07:08:15.327Z,16.65
2019-02-24T07:11:05.197Z,19.07
2019-02-24T07:13:55.001Z,17.12
2019-02-24T07:16:44.975Z,18.20
2019-02-24T07:19:35.268Z,17.95
2019-02-24T07:22:25.336Z,20.23
2019-02-24T07:25:15.253Z,19.67
2019-02-24T07:28:05.025Z,21.37
2019-02-24T07:30:54.995Z,17.92
2019-02-24T07:33:47.500Z,20.60
2019-02-24T07:36:37.472Z,24.32
2019-02-24T07:39:28.017Z,19.00
2019-02-24T07:42:17.526Z,20.48
2019-02-24T07:45:07.791Z,20.88
2019-02-24T07:47:57.500Z,19.95
2019-02-24T07:50:47.067Z,22.85
2019-02-24T07:53:37.015Z,19.32
2019-02-24T07:56:26.592Z,19.05
2019-02-24T07:59:16.272Z,20.27
2019-02-24T08:02:06.395Z,20.80
2019-02-24T08:04:55.901Z,21.60
2019-02-24T08:07:45.816Z,19.40
2019-02-24T08:10:35.473Z,21.15
2019-02-24T08:13:25.383Z,19.50
2019-02-24T08:16:16.388Z,16.23
2019-02-24T08:19:06.185Z,19.75
2019-02-24T08:21:55.646Z,21.60
2019-02-24T08:24:45.737Z,20.23
2019-02-24T08:27:35.217Z,18.07
2019-02-24T08:30:25.101Z,21.87
2019-02-24T08:33:15.154Z,18.07
2019-02-24T08:36:05.186Z,20.82
2019-02-24T08:38:54.716Z,19.95
2019-02-24T08:41:44.535Z,20.68
2019-02-24T08:44:34.507Z,19.50
2019-02-24T08:47:24.061Z,25.32
2019-02-24T08:50:13.732Z,21.73
2019-02-24T08:53:03.546Z,18.73
2019-02-24T08:55:53.114Z,21.45
2019-02-24T08:58:42.851Z,20.30
2019-02-24T09:01:32.876Z,22.20
2019-02-24T09:04:22.514Z,19.15
2019-02-24T09:07:12.246Z,20.27
2019-02-24T09:10:02.183Z,19.52
2019-02-24T09:12:52.892Z,19.48
2019-02-24T09:15:42.460Z,17.98
2019-02-24T09:18:32.363Z,17.90
2019-02-24T09:21:22.471Z,23.90
2019-02-24T09:24:12.193Z,20.88
2019-02-24T09:27:01.347Z,22.70
2019-02-24T09:29:52.069Z,24.20
2019-02-24T09:32:41.639Z,19.65
2019-02-24T09:35:31.438Z,20.60
2019-02-24T09:38:21.132Z,19.05
2019-02-24T09:41:11.084Z,19.25
2019-02-24T09:44:00.788Z,18.77
2019-02-24T09:46:51.052Z,17.50
2019-02-24T09:49:40.766Z,21.65
2019-02-24T09:52:30.945Z,23.12
2019-02-24T09:55:21.932Z,21.02
2019-02-24T09:58:11.432Z,26.57
2019-02-24T10:01:09.956Z,21.57
2019-02-24T10:03:55.701Z,23.10
2019-02-24T10:06:45.165Z,22.25
2019-02-24T10:09:34.818Z,22.87
2019-02-24T10:12:24.534Z,17.20
2019-02-24T10:15:14.252Z,23.98
2019-02-24T10:18:04.074Z,22.05
2019-02-24T10:20:53.632Z,19.00
2019-02-24T10:23:43.621Z,19.45
2019-02-24T10:26:32.992Z,23.92
2019-02-24T10:29:22.577Z,21.75
2019-02-24T10:32:12.323Z,21.07
2019-02-24T10:35:01.616Z,19.10
2019-02-24T10:37:51.526Z,23.27
2019-02-24T10:40:41.457Z,21.70
2019-02-24T10:43:31.163Z,19.37
2019-02-24T10:46:21.140Z,22.42
2019-02-24T10:49:10.635Z,24.70
2019-02-24T10:52:00.417Z,21.68
2019-02-24T10:54:50.117Z,22.87
2019-02-24T10:57:39.875Z,19.25
2019-02-24T11:00:35.272Z,18.30
2019-02-24T11:03:24.946Z,21.55
2019-02-24T11:06:14.847Z,22.65
2019-02-24T11:09:08.058Z,23.45
2019-02-24T11:11:57.864Z,18.73
2019-02-24T11:14:47.944Z,20.82
2019-02-24T11:17:37.538Z,19.80
2019-02-24T11:20:27.427Z,18.70
2019-02-24T11:23:16.742Z,20.72
2019-02-24T11:26:06.465Z,25.82
2019-02-24T11:28:56.468Z,19.87
2019-02-24T11:31:46.125Z,22.05
2019-02-24T11:34:36.321Z,20.50
2019-02-24T11:37:26.063Z,18.95
2019-02-24T11:40:15.684Z,21.17
2019-02-24T11:43:05.547Z,19.17
2019-02-24T11:45:55.866Z,19.67
2019-02-24T11:48:45.705Z,20.95
2019-02-24T11:51:35.302Z,19.67
2019-02-24T11:54:24.532Z,22.75
2019-02-24T11:57:14.264Z,22.58
2019-02-24T12:00:04.006Z,21.68
2019-02-24T12:02:54.038Z,23.92
2019-02-24T12:05:43.571Z,24.32
2019-02-24T12:08:33.254Z,21.80
2019-02-24T12:11:23.048Z,21.50
2019-02-24T12:14:13.043Z,21.05
2019-02-24T12:17:02.803Z,18.98
2019-02-24T12:19:52.572Z,22.32
2019-02-24T12:22:41.907Z,22.75
2019-02-24T12:25:31.713Z,17.25
2019-02-24T12:28:21.486Z,19.98
2019-02-24T12:31:11.153Z,20.43
2019-02-24T12:34:00.856Z,23.60
2019-02-24T12:36:50.651Z,21.73
2019-02-24T12:39:41.537Z,21.10
2019-02-24T12:42:31.331Z,22.17
2019-02-24T12:45:21.284Z,21.30
2019-02-24T12:48:11.123Z,22.67
2019-02-24T12:51:00.862Z,22.55
2019-02-24T12:53:50.461Z,18.42
2019-02-24T12:56:40.105Z,21.35
2019-02-24T12:59:30.226Z,23.07
2019-02-24T13:02:19.963Z,19.20
2019-02-24T13:05:09.856Z,24.45
2019-02-24T13:08:00.256Z,19.23
2019-02-24T13:10:49.823Z,20.02
2019-02-24T13:13:39.581Z,19.85
2019-02-24T13:16:29.591Z,21.30
2019-02-24T13:19:19.452Z,20.43
2019-02-24T13:22:08.954Z,23.57
2019-02-24T13:24:59.132Z,21.60
2019-02-24T13:27:49.248Z,20.27
2019-02-24T13:30:39.724Z,19.97
2019-02-24T13:33:29.604Z,20.83
2019-02-24T13:36:19.382Z,21.87
2019-02-24T13:39:09.163Z,25.27
2019-02-24T13:41:58.826Z,22.85
2019-02-24T13:44:47.930Z,20.95
2019-02-24T13:47:37.672Z,21.37
2019-02-24T13:50:27.173Z,21.60
2019-02-24T13:53:16.743Z,22.48
2019-02-24T13:56:06.749Z,23.18
2019-02-24T13:58:56.395Z,21.70
2019-02-24T14:01:46.372Z,23.42
2019-02-24T14:04:35.635Z,23.25
2019-02-24T14:07:25.632Z,23.83
2019-02-24T14:10:15.374Z,21.40
2019-02-24T14:13:04.834Z,20.55
2019-02-24T14:15:54.744Z,22.50
2019-02-24T14:18:44.455Z,20.85
2019-02-24T14:21:33.890Z,21.00
2019-02-24T14:24:23.702Z,20.62
2019-02-24T14:27:14.628Z,21.42
2019-02-24T14:30:05.305Z,21.20
2019-02-24T14:32:54.575Z,22.52
2019-02-24T14:35:44.314Z,23.40
2019-02-24T14:38:34.034Z,21.10
2019-02-24T14:41:23.945Z,24.30
2019-02-24T14:44:13.545Z,20.12
2019-02-24T14:47:04.605Z,23.70
2019-02-24T14:49:55.479Z,19.85
2019-02-24T14:52:45.393Z,26.00
2019-02-24T14:55:35.542Z,22.95
2019-02-24T14:58:25.075Z,23.42
2019-02-24T15:01:14.705Z,24.65
2019-02-24T15:04:04.194Z,25.82
2019-02-24T15:06:54.154Z,25.27
2019-02-24T15:09:44.085Z,21.75
2019-02-24T15:12:33.813Z,27.85
2019-02-24T15:15:32.442Z,23.10
2019-02-24T15:18:15.574Z,19.98
2019-02-24T15:21:05.325Z,21.48
2019-02-24T15:23:55.444Z,20.35
2019-02-24T15:26:45.185Z,21.97
2019-02-24T15:29:35.847Z,26.60
2019-02-24T15:32:25.888Z,23.50
2019-02-24T15:35:15.645Z,26.75
2019-02-24T15:38:05.625Z,24.85
2019-02-24T15:40:55.522Z,25.88
2019-02-24T15:43:45.201Z,27.10
2019-02-24T15:46:35.596Z,24.45
2019-02-24T15:49:25.169Z,29.72
2019-02-24T15:52:14.856Z,24.02
2019-02-24T15:55:04.413Z,23.83
2019-02-24T15:57:54.444Z,27.65
2019-02-24T16:00:43.992Z,25.35
2019-02-24T16:03:33.942Z,29.77
2019-02-24T16:06:23.940Z,25.82
2019-02-24T16:09:13.826Z,24.77
2019-02-24T16:12:03.992Z,24.60
2019-02-24T16:14:53.793Z,27.82
2019-02-24T16:17:43.351Z,25.80
2019-02-24T16:20:33.162Z,27.87
2019-02-24T16:23:23.228Z,24.63
2019-02-24T16:26:13.081Z,27.10
2019-02-24T16:29:02.491Z,26.90
2019-02-24T16:31:52.162Z,24.60
2019-02-24T16:34:42.078Z,24.92
2019-02-24T16:37:31.915Z,25.05
2019-02-24T16:40:21.903Z,23.62
2019-02-24T16:43:11.484Z,25.70
2019-02-24T16:46:01.477Z,26.33
2019-02-24T16:48:51.532Z,23.20
2019-02-24T16:51:41.638Z,28.50
2019-02-24T16:54:31.396Z,24.23
2019-02-24T16:57:20.792Z,23.25
2019-02-24T17:00:16.036Z,24.50
2019-02-24T17:03:05.892Z,22.35
2019-02-24T17:06:01.804Z,22.65
2019-02-24T17:08:52.002Z,23.60
2019-02-24T17:11:42.537Z,23.98
2019-02-24T17:14:32.161Z,21.00
2019-02-24T17:17:21.712Z,24.80
2019-02-24T17:20:13.073Z,21.60
2019-02-24T17:23:02.830Z,23.80
2019-02-24T17:25:53.147Z,26.65
2019-02-24T17:28:43.007Z,25.70
2019-02-24T17:31:32.693Z,25.37
2019-02-24T17:34:23.382Z,31.55
2019-02-24T17:37:19.846Z,30.23
2019-02-24T17:40:03.807Z,27.00
2019-02-24T17:42:53.570Z,25.72
2019-02-24T17:45:44.875Z,24.50
2019-02-24T17:48:34.848Z,24.02
2019-02-24T17:51:24.625Z,25.23
2019-02-24T17:54:14.515Z,23.27
2019-02-24T17:57:06.186Z,22.80
2019-02-24T17:59:55.835Z,24.72
2019-02-24T18:02:45.514Z,26.07
2019-02-24T18:05:35.407Z,25.17
2019-02-24T18:08:28.174Z,24.47
2019-02-24T18:11:16.606Z,25.97
2019-02-24T18:14:06.342Z,26.80
2019-02-24T18:16:56.965Z,25.77
2019-02-24T18:19:47.032Z,25.57
2019-02-24T18:22:37.082Z,28.62
2019-02-24T18:25:26.511Z,27.25
2019-02-24T18:28:19.136Z,30.40
2019-02-24T18:31:08.891Z,22.42
2019-02-24T18:33:58.877Z,27.17
2019-02-24T18:36:48.943Z,25.20
2019-02-24T18:39:38.695Z,28.35
2019-02-24T18:42:29.675Z,28.32
2019-02-24T18:45:19.794Z,28.15
2019-02-24T18:48:09.838Z,26.37
2019-02-24T18:50:59.647Z,24.98
2019-02-24T18:53:49.263Z,25.88
2019-02-24T18:56:39.385Z,27.07
2019-02-24T18:59:29.056Z,29.12
2019-02-24T19:02:18.942Z,27.05
2019-02-24T19:05:09.029Z,30.77
2019-02-24T19:07:58.814Z,27.85
2019-02-24T19:10:48.692Z,30.60
2019-02-24T19:13:38.473Z,31.60
2019-02-24T19:16:27.935Z,33.75
2019-02-24T19:19:25.338Z,31.65
2019-02-24T19:22:08.833Z,35.33
2019-02-24T19:24:58.459Z,32.95
2019-02-24T19:27:48.067Z,33.48
2019-02-24T19:30:37.689Z,33.02
2019-02-24T19:33:27.660Z,32.58
2019-02-24T19:36:18.152Z,35.48
2019-02-24T19:39:09.577Z,30.60
2019-02-24T19:41:59.355Z,30.72
2019-02-24T19:44:49.325Z,30.90
2019-02-24T19:47:39.363Z,28.65
2019-02-24T19:50:29.290Z,24.92
2019-02-24T19:53:18.868Z,26.30
2019-02-24T19:56:08.103Z,27.52
2019-02-24T19:58:57.919Z,26.75
2019-02-24T20:01:47.363Z,27.65
2019-02-24T20:04:36.846Z,27.73
2019-02-24T20:07:26.623Z,27.82
2019-02-24T20:10:18.180Z,27.77
2019-02-24T20:13:07.912Z,32.93
2019-02-24T20:15:57.372Z,34.25
2019-02-24T20:18:48.232Z,31.65
2019-02-24T20:21:40.672Z,27.93
2019-02-24T20:24:33.118Z,38.17
2019-02-24T20:27:21.746Z,33.30
2019-02-24T20:30:14.529Z,31.07
2019-02-24T20:33:04.906Z,32.88
2019-02-24T20:35:54.845Z,33.65
2019-02-24T20:38:44.247Z,32.85
2019-02-24T20:41:33.932Z,35.43
2019-02-24T20:44:23.605Z,34.35
2019-02-24T20:47:13.292Z,30.92
2019-02-24T20:50:03.475Z,31.27
2019-02-24T20:52:53.128Z,33.78
2019-02-24T20:55:45.872Z,34.00
2019-02-24T20:58:35.954Z,29.75
2019-02-24T21:01:25.823Z,33.48
2019-02-24T21:04:15.237Z,33.35
2019-02-24T21:07:04.702Z,35.10
2019-02-24T21:09:54.599Z,30.45
2019-02-24T21:12:44.348Z,29.10
2019-02-24T21:15:34.176Z,34.55
2019-02-24T21:18:24.322Z,31.27
2019-02-24T21:21:13.912Z,32.08
2019-02-24T21:24:03.477Z,34.40
2019-02-24T21:26:53.473Z,28.90
2019-02-24T21:29:43.334Z,33.28
2019-02-24T21:32:33.034Z,28.67
2019-02-24T21:35:23.104Z,33.02
2019-02-24T21:38:12.824Z,30.35
2019-02-24T21:41:02.866Z,31.97
2019-02-24T21:43:52.362Z,32.88
2019-02-24T21:46:42.134Z,36.23
2019-02-24T21:49:32.222Z,31.27
2019-02-24T21:52:21.973Z,30.08
2019-02-24T21:55:11.780Z,35.65
2019-02-24T21:58:01.441Z,31.42
2019-02-24T22:00:51.402Z,36.08
2019-02-24T22:03:41.328Z,37.55
2019-02-24T22:06:31.047Z,29.60
2019-02-24T22:09:20.876Z,34.30
2019-02-24T22:12:10.762Z,37.55
2019-02-24T22:15:00.742Z,33.10
2019-02-24T22:17:50.333Z,32.95
2019-02-24T22:20:40.223Z,36.20
2019-02-24T22:23:30.176Z,27.17
2019-02-24T22:26:21.177Z,31.10
2019-02-24T22:29:11.091Z,32.08
2019-02-24T22:32:00.472Z,31.48
2019-02-24T22:34:50.231Z,30.57
2019-02-24T22:37:40.123Z,29.37
2019-02-24T22:40:29.892Z,32.42
2019-02-24T22:43:19.767Z,35.13
2019-02-24T22:46:09.666Z,30.35
2019-02-24T22:48:59.686Z,31.65
2019-02-24T22:51:49.836Z,31.82
2019-02-24T22:54:39.512Z,30.60
2019-02-24T22:57:29.372Z,29.20
2019-02-24T23:00:32.645Z,35.48
2019-02-24T23:03:24.192Z,34.25
2019-02-24T23:06:13.652Z,31.97
2019-02-24T23:09:06.162Z,34.13
2019-02-24T23:11:57.235Z,35.08
2019-02-24T23:14:47.252Z,33.60
2019-02-24T23:17:37.081Z,36.25
2019-02-24T23:20:26.923Z,32.15
2019-02-24T23:23:16.832Z,28.80
2019-02-24T23:26:06.233Z,32.53
2019-02-24T23:28:55.825Z,30.15
2019-02-24T23:31:45.392Z,33.53
2019-02-24T23:34:35.152Z,32.70
2019-02-24T23:37:24.793Z,33.40
2019-02-24T23:40:14.796Z,35.48
2019-02-24T23:43:04.545Z,31.23
2019-02-24T23:45:54.465Z,37.40
2019-02-24T23:48:43.953Z,40.20
2019-02-24T23:51:33.725Z,36.75
2019-02-24T23:54:23.935Z,33.73
2019-02-24T23:57:13.595Z,34.75
